sensor_id;sensor_type;location;lat;lon;timestamp;P1;P2;P0
57049;PMS7003;42935;50.966;16.992;2023-03-11T00:02:47;1;1;0
57049;PMS7003;42935;50.966;16.992;2023-03-11T00:06:36;2;0;0
57049;PMS7003;42935;50.966;16.992;2023-03-11T00:10:27;1;1;0
57049;PMS7003;42935;50.966;16.992;2023-03-11T00:13:54;1;0;0
57049;PMS7003;42935;50.966;16.992;2023-03-11T00:17:08;1;0;0
57049;PMS7003;42935;50.966;16.992;2023-03-11T00:20:29;0;0;0
57049;PMS7003;42935;50.966;16.992;2023-03-11T00:23:47;0;0;0
57049;PMS7003;42935;50.966;16.992;2023-03-11T00:27:04;0;0;0
57049;PMS7003;42935;50.966;16.992;2023-03-11T00:30:53;0;0;0
57049;PMS7003;42935;50.966;16.992;2023-03-11T00:34:17;0;0;0
57049;PMS7003;42935;50.966;16.992;2023-03-11T00:37:36;0;0;0
57049;PMS7003;42935;50.966;16.992;2023-03-11T00:40:53;0;0;0
57049;PMS7003;42935;50.966;16.992;2023-03-11T00:44:08;2;1;1
57049;PMS7003;42935;50.966;16.992;2023-03-11T00:47:24;1;1;0
57049;PMS7003;42935;50.966;16.992;2023-03-11T00:50:40;2;0;0
57049;PMS7003;42935;50.966;16.992;2023-03-11T00:53:57;3;1;1
57049;PMS7003;42935;50.966;16.992;2023-03-11T00:57:17;1;1;1
57049;PMS7003;42935;50.966;16.992;2023-03-11T01:00:33;0;0;0
57049;PMS7003;42935;50.966;16.992;2023-03-11T01:03:48;1;1;1
57049;PMS7003;42935;50.966;16.992;2023-03-11T01:07:06;1;0;0
57049;PMS7003;42935;50.966;16.992;2023-03-11T01:10:21;1;1;0
57049;PMS7003;42935;50.966;16.992;2023-03-11T01:13:43;2;1;1
57049;PMS7003;42935;50.966;16.992;2023-03-11T01:17:02;1;1;1
57049;PMS7003;42935;50.966;16.992;2023-03-11T01:20:17;2;1;1
57049;PMS7003;42935;50.966;16.992;2023-03-11T01:23:38;3;2;1
57049;PMS7003;42935;50.966;16.992;2023-03-11T01:26:59;2;2;2
57049;PMS7003;42935;50.966;16.992;2023-03-11T01:30:15;2;2;2
57049;PMS7003;42935;50.966;16.992;2023-03-11T01:33:37;3;2;2
57049;PMS7003;42935;50.966;16.992;2023-03-11T01:36:58;2;1;1
57049;PMS7003;42935;50.966;16.992;2023-03-11T01:40:16;4;2;2
57049;PMS7003;42935;50.966;16.992;2023-03-11T01:50:39;3;2;2
57049;PMS7003;42935;50.966;16.992;2023-03-11T01:54:15;4;3;2
57049;PMS7003;42935;50.966;16.992;2023-03-11T01:58:06;5;2;1
57049;PMS7003;42935;50.966;16.992;2023-03-11T02:01:28;1;1;1
57049;PMS7003;42935;50.966;16.992;2023-03-11T02:04:45;2;1;1
57049;PMS7003;42935;50.966;16.992;2023-03-11T02:08:03;3;3;2
57049;PMS7003;42935;50.966;16.992;2023-03-11T02:11:21;2;1;1
57049;PMS7003;42935;50.966;16.992;2023-03-11T02:14:41;5;2;1
57049;PMS7003;42935;50.966;16.992;2023-03-11T02:18:00;4;2;1
57049;PMS7003;42935;50.966;16.992;2023-03-11T02:21:25;3;2;2
57049;PMS7003;42935;50.966;16.992;2023-03-11T02:28:19;2;2;2
57049;PMS7003;42935;50.966;16.992;2023-03-11T02:31:43;3;2;2
57049;PMS7003;42935;50.966;16.992;2023-03-11T02:35:03;2;2;2
57049;PMS7003;42935;50.966;16.992;2023-03-11T02:38:22;3;2;1
57049;PMS7003;42935;50.966;16.992;2023-03-11T02:41:39;5;2;1
57049;PMS7003;42935;50.966;16.992;2023-03-11T02:45:05;4;2;2
57049;PMS7003;42935;50.966;16.992;2023-03-11T02:48:31;6;3;2
57049;PMS7003;42935;50.966;16.992;2023-03-11T02:51:51;2;2;1
57049;PMS7003;42935;50.966;16.992;2023-03-11T02:55:10;2;2;2
57049;PMS7003;42935;50.966;16.992;2023-03-11T02:58:31;2;2;1
57049;PMS7003;42935;50.966;16.992;2023-03-11T03:01:47;2;2;1
57049;PMS7003;42935;50.966;16.992;2023-03-11T03:05:08;2;1;1
57049;PMS7003;42935;50.966;16.992;2023-03-11T03:08:25;2;2;2
57049;PMS7003;42935;50.966;16.992;2023-03-11T03:11:45;3;3;3
57049;PMS7003;42935;50.966;16.992;2023-03-11T03:15:04;0;0;0
57049;PMS7003;42935;50.966;16.992;2023-03-11T03:18:22;0;0;0
57049;PMS7003;42935;50.966;16.992;2023-03-11T03:21:37;0;0;0
57049;PMS7003;42935;50.966;16.992;2023-03-11T03:24:55;0;0;0
57049;PMS7003;42935;50.966;16.992;2023-03-11T03:28:14;0;0;0
57049;PMS7003;42935;50.966;16.992;2023-03-11T03:31:31;0;0;0
57049;PMS7003;42935;50.966;16.992;2023-03-11T03:34:49;0;0;0
57049;PMS7003;42935;50.966;16.992;2023-03-11T03:38:12;3;0;0
57049;PMS7003;42935;50.966;16.992;2023-03-11T03:41:27;0;0;0
57049;PMS7003;42935;50.966;16.992;2023-03-11T03:44:45;0;0;0
57049;PMS7003;42935;50.966;16.992;2023-03-11T03:48:01;0;0;0
57049;PMS7003;42935;50.966;16.992;2023-03-11T03:51:18;0;0;0
57049;PMS7003;42935;50.966;16.992;2023-03-11T03:54:34;0;0;0
57049;PMS7003;42935;50.966;16.992;2023-03-11T03:57:49;0;0;0
57049;PMS7003;42935;50.966;16.992;2023-03-11T04:01:07;0;0;0
57049;PMS7003;42935;50.966;16.992;2023-03-11T04:04:24;0;0;0
57049;PMS7003;42935;50.966;16.992;2023-03-11T04:07:40;0;0;0
57049;PMS7003;42935;50.966;16.992;2023-03-11T04:10:57;0;0;0
57049;PMS7003;42935;50.966;16.992;2023-03-11T04:14:19;0;0;0
57049;PMS7003;42935;50.966;16.992;2023-03-11T04:17:38;0;0;0
57049;PMS7003;42935;50.966;16.992;2023-03-11T04:20:55;0;0;0
57049;PMS7003;42935;50.966;16.992;2023-03-11T04:24:10;0;0;0
57049;PMS7003;42935;50.966;16.992;2023-03-11T04:27:57;0;0;0
57049;PMS7003;42935;50.966;16.992;2023-03-11T04:31:10;0;0;0
57049;PMS7003;42935;50.966;16.992;2023-03-11T04:34:26;0;0;0
57049;PMS7003;42935;50.966;16.992;2023-03-11T04:37:42;0;0;0
57049;PMS7003;42935;50.966;16.992;2023-03-11T04:44:16;0;0;0
57049;PMS7003;42935;50.966;16.992;2023-03-11T04:47:37;0;0;0
57049;PMS7003;42935;50.966;16.992;2023-03-11T04:50:52;0;0;0
57049;PMS7003;42935;50.966;16.992;2023-03-11T04:54:09;0;0;0
57049;PMS7003;42935;50.966;16.992;2023-03-11T04:57:26;0;0;0
57049;PMS7003;42935;50.966;16.992;2023-03-11T05:00:47;0;0;0
57049;PMS7003;42935;50.966;16.992;2023-03-11T05:04:04;1;0;0
57049;PMS7003;42935;50.966;16.992;2023-03-11T05:07:23;0;0;0
57049;PMS7003;42935;50.966;16.992;2023-03-11T05:10:40;0;0;0
57049;PMS7003;42935;50.966;16.992;2023-03-11T05:13:56;0;0;0
57049;PMS7003;42935;50.966;16.992;2023-03-11T05:17:12;0;0;0
57049;PMS7003;42935;50.966;16.992;2023-03-11T05:20:33;0;0;0
57049;PMS7003;42935;50.966;16.992;2023-03-11T05:23:49;0;0;0
57049;PMS7003;42935;50.966;16.992;2023-03-11T05:27:10;0;0;0
57049;PMS7003;42935;50.966;16.992;2023-03-11T05:30:26;0;0;0
57049;PMS7003;42935;50.966;16.992;2023-03-11T05:33:44;0;0;0
57049;PMS7003;42935;50.966;16.992;2023-03-11T05:37:03;0;0;0
57049;PMS7003;42935;50.966;16.992;2023-03-11T05:40:21;1;0;0
57049;PMS7003;42935;50.966;16.992;2023-03-11T05:43:37;1;1;0
57049;PMS7003;42935;50.966;16.992;2023-03-11T05:46:54;1;0;0
57049;PMS7003;42935;50.966;16.992;2023-03-11T05:50:11;1;1;1
57049;PMS7003;42935;50.966;16.992;2023-03-11T05:53:29;1;0;0
57049;PMS7003;42935;50.966;16.992;2023-03-11T05:56:49;1;1;0
57049;PMS7003;42935;50.966;16.992;2023-03-11T06:00:09;1;1;0
57049;PMS7003;42935;50.966;16.992;2023-03-11T06:03:27;1;1;1
57049;PMS7003;42935;50.966;16.992;2023-03-11T06:06:46;2;1;1
57049;PMS7003;42935;50.966;16.992;2023-03-11T06:10:02;2;2;2
57049;PMS7003;42935;50.966;16.992;2023-03-11T06:13:20;4;3;2
57049;PMS7003;42935;50.966;16.992;2023-03-11T06:16:36;4;3;2
57049;PMS7003;42935;50.966;16.992;2023-03-11T06:19:57;2;1;1
57049;PMS7003;42935;50.966;16.992;2023-03-11T06:23:14;3;3;1
57049;PMS7003;42935;50.966;16.992;2023-03-11T06:26:32;5;4;3
57049;PMS7003;42935;50.966;16.992;2023-03-11T06:29:52;7;4;2
57049;PMS7003;42935;50.966;16.992;2023-03-11T06:33:07;5;5;4
57049;PMS7003;42935;50.966;16.992;2023-03-11T06:36:27;6;4;4
57049;PMS7003;42935;50.966;16.992;2023-03-11T06:39:50;8;4;3
57049;PMS7003;42935;50.966;16.992;2023-03-11T06:43:06;9;5;4
57049;PMS7003;42935;50.966;16.992;2023-03-11T06:46:23;11;6;5
57049;PMS7003;42935;50.966;16.992;2023-03-11T06:49:40;9;8;6
57049;PMS7003;42935;50.966;16.992;2023-03-11T06:53:04;9;8;7
57049;PMS7003;42935;50.966;16.992;2023-03-11T06:56:22;11;6;5
57049;PMS7003;42935;50.966;16.992;2023-03-11T06:59:38;6;6;5
57049;PMS7003;42935;50.966;16.992;2023-03-11T07:02:55;9;6;5
57049;PMS7003;42935;50.966;16.992;2023-03-11T07:06:15;9;8;6
57049;PMS7003;42935;50.966;16.992;2023-03-11T07:09:35;10;8;5
57049;PMS7003;42935;50.966;16.992;2023-03-11T07:12:51;13;10;9
57049;PMS7003;42935;50.966;16.992;2023-03-11T07:16:18;10;8;6
57049;PMS7003;42935;50.966;16.992;2023-03-11T07:19:38;13;10;7
57049;PMS7003;42935;50.966;16.992;2023-03-11T07:23:03;10;8;6
57049;PMS7003;42935;50.966;16.992;2023-03-11T07:26:20;7;7;5
57049;PMS7003;42935;50.966;16.992;2023-03-11T07:29:40;13;8;6
57049;PMS7003;42935;50.966;16.992;2023-03-11T07:33:04;10;8;5
57049;PMS7003;42935;50.966;16.992;2023-03-11T07:36:21;11;9;7
57049;PMS7003;42935;50.966;16.992;2023-03-11T07:39:42;8;6;5
57049;PMS7003;42935;50.966;16.992;2023-03-11T07:42:59;9;8;6
57049;PMS7003;42935;50.966;16.992;2023-03-11T07:46:15;8;7;5
57049;PMS7003;42935;50.966;16.992;2023-03-11T07:49:35;6;6;4
57049;PMS7003;42935;50.966;16.992;2023-03-11T07:52:52;10;8;5
57049;PMS7003;42935;50.966;16.992;2023-03-11T07:56:09;8;7;5
57049;PMS7003;42935;50.966;16.992;2023-03-11T07:59:31;9;8;5
57049;PMS7003;42935;50.966;16.992;2023-03-11T08:02:48;9;7;5
57049;PMS7003;42935;50.966;16.992;2023-03-11T08:06:14;8;7;4
57049;PMS7003;42935;50.966;16.992;2023-03-11T08:09:34;7;6;4
57049;PMS7003;42935;50.966;16.992;2023-03-11T08:12:51;9;7;4
57049;PMS7003;42935;50.966;16.992;2023-03-11T08:16:08;16;9;5
57049;PMS7003;42935;50.966;16.992;2023-03-11T08:19:27;11;8;6
57049;PMS7003;42935;50.966;16.992;2023-03-11T08:22:44;10;8;5
57049;PMS7003;42935;50.966;16.992;2023-03-11T08:26:03;8;7;5
57049;PMS7003;42935;50.966;16.992;2023-03-11T08:29:22;23;17;10
57049;PMS7003;42935;50.966;16.992;2023-03-11T08:32:44;16;9;6
57049;PMS7003;42935;50.966;16.992;2023-03-11T08:36:02;25;17;11
57049;PMS7003;42935;50.966;16.992;2023-03-11T08:39:26;24;18;13
57049;PMS7003;42935;50.966;16.992;2023-03-11T08:42:43;8;5;4
57049;PMS7003;42935;50.966;16.992;2023-03-11T08:46:00;11;9;6
57049;PMS7003;42935;50.966;16.992;2023-03-11T08:49:23;12;8;6
57049;PMS7003;42935;50.966;16.992;2023-03-11T08:52:42;7;6;4
57049;PMS7003;42935;50.966;16.992;2023-03-11T08:56:31;6;4;3
57049;PMS7003;42935;50.966;16.992;2023-03-11T08:59:46;7;5;4
57049;PMS7003;42935;50.966;16.992;2023-03-11T09:03:11;6;6;3
57049;PMS7003;42935;50.966;16.992;2023-03-11T09:06:31;6;5;4
57049;PMS7003;42935;50.966;16.992;2023-03-11T09:09:48;8;5;3
57049;PMS7003;42935;50.966;16.992;2023-03-11T09:13:08;5;5;4
57049;PMS7003;42935;50.966;16.992;2023-03-11T09:16:23;4;3;1
57049;PMS7003;42935;50.966;16.992;2023-03-11T09:19:38;3;3;1
57049;PMS7003;42935;50.966;16.992;2023-03-11T09:22:56;8;5;4
57049;PMS7003;42935;50.966;16.992;2023-03-11T09:26:13;6;5;3
57049;PMS7003;42935;50.966;16.992;2023-03-11T09:29:31;5;5;5
57049;PMS7003;42935;50.966;16.992;2023-03-11T09:32:51;8;5;4
57049;PMS7003;42935;50.966;16.992;2023-03-11T09:36:18;4;4;2
57049;PMS7003;42935;50.966;16.992;2023-03-11T09:39:31;4;3;2
57049;PMS7003;42935;50.966;16.992;2023-03-11T09:53:36;4;4;2
57049;PMS7003;42935;50.966;16.992;2023-03-11T09:56:59;5;5;3
57049;PMS7003;42935;50.966;16.992;2023-03-11T10:00:16;7;5;4
57049;PMS7003;42935;50.966;16.992;2023-03-11T10:03:36;7;5;3
57049;PMS7003;42935;50.966;16.992;2023-03-11T10:06:53;8;6;5
57049;PMS7003;42935;50.966;16.992;2023-03-11T10:10:14;12;6;5
57049;PMS7003;42935;50.966;16.992;2023-03-11T10:13:41;7;5;4
57049;PMS7003;42935;50.966;16.992;2023-03-11T10:21:33;7;6;5
57049;PMS7003;42935;50.966;16.992;2023-03-11T10:25:02;11;7;6
57049;PMS7003;42935;50.966;16.992;2023-03-11T10:35:22;11;9;6
57049;PMS7003;42935;50.966;16.992;2023-03-11T10:38:50;9;6;5
57049;PMS7003;42935;50.966;16.992;2023-03-11T10:42:12;9;8;6
57049;PMS7003;42935;50.966;16.992;2023-03-11T10:45:38;9;6;5
57049;PMS7003;42935;50.966;16.992;2023-03-11T10:49:02;13;10;7
57049;PMS7003;42935;50.966;16.992;2023-03-11T10:52:21;12;8;7
57049;PMS7003;42935;50.966;16.992;2023-03-11T10:55:45;9;7;5
57049;PMS7003;42935;50.966;16.992;2023-03-11T11:09:44;10;7;5
57049;PMS7003;42935;50.966;16.992;2023-03-11T11:16:35;7;7;6
57049;PMS7003;42935;50.966;16.992;2023-03-11T11:19:54;10;8;5
57049;PMS7003;42935;50.966;16.992;2023-03-11T11:23:23;17;13;8
57049;PMS7003;42935;50.966;16.992;2023-03-11T11:26:42;10;7;5
57049;PMS7003;42935;50.966;16.992;2023-03-11T11:33:50;7;6;5
57049;PMS7003;42935;50.966;16.992;2023-03-11T11:37:03;8;7;5
57049;PMS7003;42935;50.966;16.992;2023-03-11T11:43:52;8;7;6
57049;PMS7003;42935;50.966;16.992;2023-03-11T11:47:12;12;7;6
57049;PMS7003;42935;50.966;16.992;2023-03-11T11:50:42;8;8;5
57049;PMS7003;42935;50.966;16.992;2023-03-11T11:57:29;11;7;5
57049;PMS7003;42935;50.966;16.992;2023-03-11T12:00:48;9;8;5
57049;PMS7003;42935;50.966;16.992;2023-03-11T12:04:24;7;5;4
57049;PMS7003;42935;50.966;16.992;2023-03-11T12:11:25;6;4;4
57049;PMS7003;42935;50.966;16.992;2023-03-11T12:18:26;6;5;3
57049;PMS7003;42935;50.966;16.992;2023-03-11T12:21:58;8;5;4
57049;PMS7003;42935;50.966;16.992;2023-03-11T12:28:55;7;4;4
57049;PMS7003;42935;50.966;16.992;2023-03-11T12:32:22;7;5;4
57049;PMS7003;42935;50.966;16.992;2023-03-11T12:35:51;7;5;4
57049;PMS7003;42935;50.966;16.992;2023-03-11T12:42:38;4;3;2
57049;PMS7003;42935;50.966;16.992;2023-03-11T12:46:01;7;5;4
57049;PMS7003;42935;50.966;16.992;2023-03-11T12:49:22;4;3;3
57049;PMS7003;42935;50.966;16.992;2023-03-11T12:52:55;4;3;2
57049;PMS7003;42935;50.966;16.992;2023-03-11T12:56:13;3;2;1
57049;PMS7003;42935;50.966;16.992;2023-03-11T13:06:45;7;6;4
57049;PMS7003;42935;50.966;16.992;2023-03-11T13:10:11;4;4;3
57049;PMS7003;42935;50.966;16.992;2023-03-11T13:13:38;7;5;4
57049;PMS7003;42935;50.966;16.992;2023-03-11T13:16:57;6;4;3
57049;PMS7003;42935;50.966;16.992;2023-03-11T13:27:37;6;5;4
57049;PMS7003;42935;50.966;16.992;2023-03-11T13:41:30;13;8;6
57049;PMS7003;42935;50.966;16.992;2023-03-11T13:44:50;12;7;5
57049;PMS7003;42935;50.966;16.992;2023-03-11T13:48:10;7;3;3
57049;PMS7003;42935;50.966;16.992;2023-03-11T13:51:39;11;6;4
57049;PMS7003;42935;50.966;16.992;2023-03-11T13:55:02;6;5;4
57049;PMS7003;42935;50.966;16.992;2023-03-11T13:58:23;9;4;3
57049;PMS7003;42935;50.966;16.992;2023-03-11T14:05:11;9;8;5
57049;PMS7003;42935;50.966;16.992;2023-03-11T14:08:36;8;5;3
57049;PMS7003;42935;50.966;16.992;2023-03-11T14:11:57;10;6;4
57049;PMS7003;42935;50.966;16.992;2023-03-11T14:15:22;8;7;5
57049;PMS7003;42935;50.966;16.992;2023-03-11T14:18:42;8;5;4
57049;PMS7003;42935;50.966;16.992;2023-03-11T14:22:06;8;6;4
57049;PMS7003;42935;50.966;16.992;2023-03-11T14:25:26;7;7;5
57049;PMS7003;42935;50.966;16.992;2023-03-11T14:28:57;7;5;4
57049;PMS7003;42935;50.966;16.992;2023-03-11T14:32:16;8;7;5
57049;PMS7003;42935;50.966;16.992;2023-03-11T14:35:48;20;13;8
57049;PMS7003;42935;50.966;16.992;2023-03-11T14:42:53;76;50;27
57049;PMS7003;42935;50.966;16.992;2023-03-11T14:49:50;22;17;9
57049;PMS7003;42935;50.966;16.992;2023-03-11T14:56:45;71;45;26
57049;PMS7003;42935;50.966;16.992;2023-03-11T15:00:12;15;9;6
57049;PMS7003;42935;50.966;16.992;2023-03-11T15:03:44;64;44;26
57049;PMS7003;42935;50.966;16.992;2023-03-11T15:07:09;55;41;26
57049;PMS7003;42935;50.966;16.992;2023-03-11T15:11:06;40;29;17
57049;PMS7003;42935;50.966;16.992;2023-03-11T15:14:23;17;11;8
57049;PMS7003;42935;50.966;16.992;2023-03-11T15:17:38;20;16;11
57049;PMS7003;42935;50.966;16.992;2023-03-11T15:21:00;8;5;4
57049;PMS7003;42935;50.966;16.992;2023-03-11T15:24:25;12;6;5
57049;PMS7003;42935;50.966;16.992;2023-03-11T15:27:46;12;9;6
57049;PMS7003;42935;50.966;16.992;2023-03-11T15:34:30;7;6;4
57049;PMS7003;42935;50.966;16.992;2023-03-11T15:41:19;8;6;5
57049;PMS7003;42935;50.966;16.992;2023-03-11T15:44:53;11;6;5
57049;PMS7003;42935;50.966;16.992;2023-03-11T15:48:10;10;6;5
57049;PMS7003;42935;50.966;16.992;2023-03-11T15:51:28;11;7;4
57049;PMS7003;42935;50.966;16.992;2023-03-11T15:54:45;13;6;5
57049;PMS7003;42935;50.966;16.992;2023-03-11T15:58:06;8;7;5
57049;PMS7003;42935;50.966;16.992;2023-03-11T16:01:27;14;10;7
57049;PMS7003;42935;50.966;16.992;2023-03-11T16:04:48;11;7;5
57049;PMS7003;42935;50.966;16.992;2023-03-11T16:08:05;8;6;4
57049;PMS7003;42935;50.966;16.992;2023-03-11T16:11:20;8;6;5
57049;PMS7003;42935;50.966;16.992;2023-03-11T16:14:37;8;6;5
57049;PMS7003;42935;50.966;16.992;2023-03-11T16:17:55;6;5;4
57049;PMS7003;42935;50.966;16.992;2023-03-11T16:21:15;6;4;4
57049;PMS7003;42935;50.966;16.992;2023-03-11T16:24:37;5;3;2
57049;PMS7003;42935;50.966;16.992;2023-03-11T16:27:56;7;5;4
57049;PMS7003;42935;50.966;16.992;2023-03-11T16:31:13;7;5;4
57049;PMS7003;42935;50.966;16.992;2023-03-11T16:34:33;10;6;5
57049;PMS7003;42935;50.966;16.992;2023-03-11T16:37:52;8;5;4
57049;PMS7003;42935;50.966;16.992;2023-03-11T16:41:09;9;7;4
57049;PMS7003;42935;50.966;16.992;2023-03-11T16:44:29;9;8;5
57049;PMS7003;42935;50.966;16.992;2023-03-11T16:47:46;10;6;5
57049;PMS7003;42935;50.966;16.992;2023-03-11T16:51:03;8;7;5
57049;PMS7003;42935;50.966;16.992;2023-03-11T16:54:23;13;8;6
57049;PMS7003;42935;50.966;16.992;2023-03-11T16:57:38;11;7;5
57049;PMS7003;42935;50.966;16.992;2023-03-11T17:00:56;8;6;4
57049;PMS7003;42935;50.966;16.992;2023-03-11T17:04:13;7;6;5
57049;PMS7003;42935;50.966;16.992;2023-03-11T17:07:30;9;5;4
57049;PMS7003;42935;50.966;16.992;2023-03-11T17:10:46;8;6;5
57049;PMS7003;42935;50.966;16.992;2023-03-11T17:14:09;10;8;5
57049;PMS7003;42935;50.966;16.992;2023-03-11T17:17:24;9;7;5
57049;PMS7003;42935;50.966;16.992;2023-03-11T17:20:44;9;9;5
57049;PMS7003;42935;50.966;16.992;2023-03-11T17:24:01;11;8;6
57049;PMS7003;42935;50.966;16.992;2023-03-11T17:27:18;14;7;6
57049;PMS7003;42935;50.966;16.992;2023-03-11T17:30:46;10;7;5
57049;PMS7003;42935;50.966;16.992;2023-03-11T17:33:56;8;7;5
57049;PMS7003;42935;50.966;16.992;2023-03-11T17:37:17;16;12;9
57049;PMS7003;42935;50.966;16.992;2023-03-11T17:40:33;16;12;9
57049;PMS7003;42935;50.966;16.992;2023-03-11T17:43:49;20;14;9
57049;PMS7003;42935;50.966;16.992;2023-03-11T17:47:04;18;12;8
57049;PMS7003;42935;50.966;16.992;2023-03-11T17:50:24;15;11;8
57049;PMS7003;42935;50.966;16.992;2023-03-11T17:53:43;15;12;9
57049;PMS7003;42935;50.966;16.992;2023-03-11T17:57:01;13;11;8
57049;PMS7003;42935;50.966;16.992;2023-03-11T18:00:18;18;12;8
57049;PMS7003;42935;50.966;16.992;2023-03-11T18:03:36;17;14;10
57049;PMS7003;42935;50.966;16.992;2023-03-11T18:06:52;13;11;8
57049;PMS7003;42935;50.966;16.992;2023-03-11T18:10:15;12;8;4
57049;PMS7003;42935;50.966;16.992;2023-03-11T18:13:35;16;9;7
57049;PMS7003;42935;50.966;16.992;2023-03-11T18:16:52;11;10;8
57049;PMS7003;42935;50.966;16.992;2023-03-11T18:20:14;11;9;6
57049;PMS7003;42935;50.966;16.992;2023-03-11T18:23:34;11;9;7
57049;PMS7003;42935;50.966;16.992;2023-03-11T18:26:52;16;11;8
57049;PMS7003;42935;50.966;16.992;2023-03-11T18:30:12;11;10;7
57049;PMS7003;42935;50.966;16.992;2023-03-11T18:33:37;16;12;9
57049;PMS7003;42935;50.966;16.992;2023-03-11T18:36:55;15;10;7
57049;PMS7003;42935;50.966;16.992;2023-03-11T18:40:13;16;12;9
57049;PMS7003;42935;50.966;16.992;2023-03-11T18:43:30;20;12;9
57049;PMS7003;42935;50.966;16.992;2023-03-11T18:46:50;22;16;10
57049;PMS7003;42935;50.966;16.992;2023-03-11T18:50:07;21;16;9
57049;PMS7003;42935;50.966;16.992;2023-03-11T18:53:25;19;15;10
57049;PMS7003;42935;50.966;16.992;2023-03-11T18:56:42;19;16;11
57049;PMS7003;42935;50.966;16.992;2023-03-11T18:59:57;21;18;13
57049;PMS7003;42935;50.966;16.992;2023-03-11T19:03:16;25;19;12
57049;PMS7003;42935;50.966;16.992;2023-03-11T19:06:36;28;19;11
57049;PMS7003;42935;50.966;16.992;2023-03-11T19:10:00;28;21;13
57049;PMS7003;42935;50.966;16.992;2023-03-11T19:13:19;27;21;15
57049;PMS7003;42935;50.966;16.992;2023-03-11T19:16:39;25;21;14
57049;PMS7003;42935;50.966;16.992;2023-03-11T19:19:56;32;20;14
57049;PMS7003;42935;50.966;16.992;2023-03-11T19:23:13;26;17;13
57049;PMS7003;42935;50.966;16.992;2023-03-11T19:26:33;30;23;14
57049;PMS7003;42935;50.966;16.992;2023-03-11T19:30:01;27;20;12
57049;PMS7003;42935;50.966;16.992;2023-03-11T19:33:16;24;18;13
57049;PMS7003;42935;50.966;16.992;2023-03-11T19:36:40;19;17;12
57049;PMS7003;42935;50.966;16.992;2023-03-11T19:39:55;28;20;14
57049;PMS7003;42935;50.966;16.992;2023-03-11T19:43:10;18;16;11
57049;PMS7003;42935;50.966;16.992;2023-03-11T19:46:28;18;15;11
57049;PMS7003;42935;50.966;16.992;2023-03-11T19:50:24;22;19;13
57049;PMS7003;42935;50.966;16.992;2023-03-11T19:53:44;18;16;12
57049;PMS7003;42935;50.966;16.992;2023-03-11T19:57:01;21;17;11
57049;PMS7003;42935;50.966;16.992;2023-03-11T20:00:17;23;17;12
57049;PMS7003;42935;50.966;16.992;2023-03-11T20:03:40;21;16;11
57049;PMS7003;42935;50.966;16.992;2023-03-11T20:07:01;24;18;11
57049;PMS7003;42935;50.966;16.992;2023-03-11T20:10:22;22;18;10
57049;PMS7003;42935;50.966;16.992;2023-03-11T20:13:41;22;16;12
57049;PMS7003;42935;50.966;16.992;2023-03-11T20:17:00;22;18;11
57049;PMS7003;42935;50.966;16.992;2023-03-11T20:20:15;18;15;10
57049;PMS7003;42935;50.966;16.992;2023-03-11T20:23:35;21;15;10
57049;PMS7003;42935;50.966;16.992;2023-03-11T20:26:53;15;11;7
57049;PMS7003;42935;50.966;16.992;2023-03-11T20:30:17;20;15;11
57049;PMS7003;42935;50.966;16.992;2023-03-11T20:33:37;17;14;9
57049;PMS7003;42935;50.966;16.992;2023-03-11T20:36:57;21;16;11
57049;PMS7003;42935;50.966;16.992;2023-03-11T20:40:17;19;15;11
57049;PMS7003;42935;50.966;16.992;2023-03-11T20:43:37;21;17;10
57049;PMS7003;42935;50.966;16.992;2023-03-11T20:46:57;24;17;10
57049;PMS7003;42935;50.966;16.992;2023-03-11T20:50:18;25;19;12
57049;PMS7003;42935;50.966;16.992;2023-03-11T20:53:38;23;16;11
57049;PMS7003;42935;50.966;16.992;2023-03-11T20:56:53;23;18;11
57049;PMS7003;42935;50.966;16.992;2023-03-11T21:00:12;20;15;9
57049;PMS7003;42935;50.966;16.992;2023-03-11T21:03:36;18;14;9
57049;PMS7003;42935;50.966;16.992;2023-03-11T21:07:02;22;16;12
57049;PMS7003;42935;50.966;16.992;2023-03-11T21:10:21;21;18;12
57049;PMS7003;42935;50.966;16.992;2023-03-11T21:13:38;19;15;9
57049;PMS7003;42935;50.966;16.992;2023-03-11T21:17:04;18;14;9
57049;PMS7003;42935;50.966;16.992;2023-03-11T21:20:25;23;16;11
57049;PMS7003;42935;50.966;16.992;2023-03-11T21:23:41;22;16;11
57049;PMS7003;42935;50.966;16.992;2023-03-11T21:26:58;22;18;12
57049;PMS7003;42935;50.966;16.992;2023-03-11T21:30:19;24;19;14
57049;PMS7003;42935;50.966;16.992;2023-03-11T21:33:39;19;17;11
57049;PMS7003;42935;50.966;16.992;2023-03-11T21:36:57;25;19;12
57049;PMS7003;42935;50.966;16.992;2023-03-11T21:40:16;28;20;13
57049;PMS7003;42935;50.966;16.992;2023-03-11T21:43:36;25;19;13
57049;PMS7003;42935;50.966;16.992;2023-03-11T21:47:05;31;20;12
57049;PMS7003;42935;50.966;16.992;2023-03-11T21:50:24;34;23;13
57049;PMS7003;42935;50.966;16.992;2023-03-11T21:53:46;32;24;13
57049;PMS7003;42935;50.966;16.992;2023-03-11T21:57:11;33;24;13
57049;PMS7003;42935;50.966;16.992;2023-03-11T22:00:33;33;22;13
57049;PMS7003;42935;50.966;16.992;2023-03-11T22:03:52;26;21;12
57049;PMS7003;42935;50.966;16.992;2023-03-11T22:07:08;32;24;15
57049;PMS7003;42935;50.966;16.992;2023-03-11T22:10:34;27;21;14
57049;PMS7003;42935;50.966;16.992;2023-03-11T22:13:51;29;19;14
57049;PMS7003;42935;50.966;16.992;2023-03-11T22:17:10;21;18;12
57049;PMS7003;42935;50.966;16.992;2023-03-11T22:20:32;25;17;12
57049;PMS7003;42935;50.966;16.992;2023-03-11T22:23:52;26;21;12
57049;PMS7003;42935;50.966;16.992;2023-03-11T22:27:15;31;20;13
57049;PMS7003;42935;50.966;16.992;2023-03-11T22:30:39;30;18;13
57049;PMS7003;42935;50.966;16.992;2023-03-11T22:33:58;27;21;14
57049;PMS7003;42935;50.966;16.992;2023-03-11T22:37:15;24;17;11
57049;PMS7003;42935;50.966;16.992;2023-03-11T22:40:34;24;20;13
57049;PMS7003;42935;50.966;16.992;2023-03-11T22:43:49;24;21;15
57049;PMS7003;42935;50.966;16.992;2023-03-11T22:47:14;26;21;13
57049;PMS7003;42935;50.966;16.992;2023-03-11T22:50:32;30;18;13
57049;PMS7003;42935;50.966;16.992;2023-03-11T22:53:48;26;21;13
57049;PMS7003;42935;50.966;16.992;2023-03-11T22:57:03;26;21;14
57049;PMS7003;42935;50.966;16.992;2023-03-11T23:00:28;29;20;13
57049;PMS7003;42935;50.966;16.992;2023-03-11T23:03:48;24;19;12
57049;PMS7003;42935;50.966;16.992;2023-03-11T23:07:07;27;18;12
57049;PMS7003;42935;50.966;16.992;2023-03-11T23:10:22;27;19;12
57049;PMS7003;42935;50.966;16.992;2023-03-11T23:13:45;22;16;10
57049;PMS7003;42935;50.966;16.992;2023-03-11T23:17:00;23;17;12
57049;PMS7003;42935;50.966;16.992;2023-03-11T23:20:24;24;19;12
57049;PMS7003;42935;50.966;16.992;2023-03-11T23:23:44;24;17;12
57049;PMS7003;42935;50.966;16.992;2023-03-11T23:27:08;30;20;13
57049;PMS7003;42935;50.966;16.992;2023-03-11T23:30:24;23;16;12
57049;PMS7003;42935;50.966;16.992;2023-03-11T23:33:43;24;17;11
57049;PMS7003;42935;50.966;16.992;2023-03-11T23:37:09;25;18;11
57049;PMS7003;42935;50.966;16.992;2023-03-11T23:40:28;21;16;10
57049;PMS7003;42935;50.966;16.992;2023-03-11T23:43:53;28;22;14
57049;PMS7003;42935;50.966;16.992;2023-03-11T23:47:08;20;16;10
57049;PMS7003;42935;50.966;16.992;2023-03-11T23:50:28;20;16;11